Time;durP1;ratioP1;P1;durP2;ratioP2;P2;SDS_P1;SDS_P2;PMS_P1;PMS_P2;Temp;Humidity;BMP_temperature;BMP_pressure;BME280_temperature;BME280_humidity;BME280_pressure;Samples;Min_cycle;Max_cycle;Signal;HPM_P1;HPM_P2
2023/10/28 00:02:15;;;;;;;;;1.00;1.00;;;;;21.57;53.90;99029.64;110131;1253;20919;-32
2023/10/28 00:04:42;;;;;;;;;2.00;2.00;;;;;21.59;53.93;99035.38;110138;1252;20039;-34
2023/10/28 00:07:10;;;;;;;;;1.00;1.00;;;;;21.56;53.76;99037.25;110137;1253;20797;-33
2023/10/28 00:09:40;;;;;;;;;2.00;2.00;;;;;21.58;53.69;99044.45;110164;1259;19610;-34
2023/10/28 00:12:08;;;;;;;;;1.50;1.50;;;;;21.59;53.84;99038.13;110052;1265;19927;-32
2023/10/28 00:14:37;;;;;;;;;1.00;1.00;;;;;21.57;53.86;99036.33;110033;1249;20806;-33
2023/10/28 00:17:04;;;;;;;;;1.00;1.00;;;;;21.56;53.66;99033.86;110020;1251;19671;-33
2023/10/28 00:19:32;;;;;;;;;1.00;1.00;;;;;21.56;53.64;99036.20;110034;1249;20197;-33
2023/10/28 00:21:59;;;;;;;;;1.00;1.00;;;;;21.57;53.79;99038.95;110164;1265;19438;-33
2023/10/28 00:24:27;;;;;;;;;1.00;1.00;;;;;21.59;53.63;99037.48;110144;1253;20883;-33
2023/10/28 00:26:56;;;;;;;;;1.50;1.50;;;;;21.58;53.68;99043.45;110185;1259;20067;-33
2023/10/28 00:29:24;;;;;;;;;2.00;2.00;;;;;21.56;53.71;99047.61;109992;1265;19366;-33
2023/10/28 00:31:52;;;;;;;;;1.50;1.50;;;;;21.58;53.59;99050.65;110148;1265;18382;-33
2023/10/28 00:34:19;;;;;;;;;1.00;1.00;;;;;21.57;53.61;99049.86;110138;1265;21718;-33
2023/10/28 00:36:47;;;;;;;;;1.00;1.00;;;;;21.58;53.65;99053.70;110167;1265;19380;-33
2023/10/28 00:39:14;;;;;;;;;1.33;1.33;;;;;21.58;53.37;99054.95;110143;1251;19852;-33
2023/10/28 00:41:42;;;;;;;;;1.00;1.00;;;;;21.57;53.62;99052.48;110214;1249;22941;-33
2023/10/28 00:44:09;;;;;;;;;1.00;1.00;;;;;21.59;53.42;99053.23;110155;1265;19404;-35
2023/10/28 00:46:36;;;;;;;;;1.00;1.00;;;;;21.58;53.55;99049.83;110143;1266;18440;-35
2023/10/28 00:49:05;;;;;;;;;4.00;1.00;;;;;21.56;53.40;99047.10;110141;1259;20030;-33
2023/10/28 00:51:33;;;;;;;;;1.00;1.00;;;;;21.58;53.47;99048.10;110154;1250;20784;-33
2023/10/28 00:54:01;;;;;;;;;1.00;1.00;;;;;21.55;53.67;99045.17;110131;1265;22803;-33
2023/10/28 00:56:29;;;;;;;;;1.00;1.00;;;;;21.54;53.48;99043.73;110152;1253;21546;-34
2023/10/28 00:58:58;;;;;;;;;1.33;1.33;;;;;21.55;53.50;99042.96;110163;1259;20651;-33
2023/10/28 01:01:25;;;;;;;;;1.00;1.00;;;;;21.56;53.62;99046.55;110149;1250;19624;-33
2023/10/28 01:03:54;;;;;;;;;1.00;1.00;;;;;21.55;53.56;99043.60;110170;1265;18611;-33
2023/10/28 01:06:21;;;;;;;;;1.00;1.00;;;;;21.53;53.56;99042.98;110136;1265;19555;-33
2023/10/28 01:08:49;;;;;;;;;1.00;1.00;;;;;21.53;53.57;99041.25;110102;1250;21992;-33
2023/10/28 01:11:17;;;;;;;;;1.00;1.00;;;;;21.55;53.59;99046.10;110074;1250;20005;-33
2023/10/28 01:13:44;;;;;;;;;1.50;1.00;;;;;21.55;53.37;99044.84;110150;1253;21311;-33
2023/10/28 01:16:11;;;;;;;;;1.00;1.00;;;;;21.55;53.62;99045.17;110148;1259;19585;-33
2023/10/28 01:18:40;;;;;;;;;1.00;1.00;;;;;21.55;53.53;99047.58;110161;1265;19949;-34
2023/10/28 01:21:07;;;;;;;;;1.00;1.00;;;;;21.53;53.43;99047.18;110163;1253;20761;-33
2023/10/28 01:23:35;;;;;;;;;2.00;2.00;;;;;21.54;53.68;99047.45;110137;1252;19595;-33
2023/10/28 01:26:02;;;;;;;;;1.00;1.00;;;;;21.53;53.43;99049.48;110133;1251;19936;-33
2023/10/28 01:28:30;;;;;;;;;1.50;1.50;;;;;21.51;53.53;99046.00;110132;1265;19378;-33
2023/10/28 01:30:59;;;;;;;;;2.00;1.00;;;;;21.52;53.45;99047.02;110143;1265;18576;-33
2023/10/28 01:33:27;;;;;;;;;2.00;1.00;;;;;21.54;53.32;99049.02;110144;1265;18754;-33
2023/10/28 01:35:55;;;;;;;;;1.00;1.00;;;;;21.54;53.46;99051.10;110214;1249;21103;-33
2023/10/28 01:38:24;;;;;;;;;2.00;2.00;;;;;21.53;53.30;99052.86;110145;1250;20076;-33
2023/10/28 01:40:52;;;;;;;;;1.00;1.00;;;;;21.53;53.49;99056.41;110173;1251;20035;-33
2023/10/28 01:43:20;;;;;;;;;2.00;2.00;;;;;21.53;53.34;99055.59;110183;1251;20827;-33
2023/10/28 01:45:47;;;;;;;;;1.00;1.00;;;;;21.53;53.59;99053.30;110224;1250;19834;-33
2023/10/28 01:48:14;;;;;;;;;1.00;1.00;;;;;21.52;53.37;99051.65;110192;1259;20012;-33
2023/10/28 01:50:42;;;;;;;;;1.00;1.00;;;;;21.54;53.34;99051.96;110167;1251;20786;-33
2023/10/28 01:53:09;;;;;;;;;1.00;1.00;;;;;21.54;53.34;99052.25;110163;1253;22178;-34
2023/10/28 01:55:37;;;;;;;;;1.00;1.00;;;;;21.53;53.52;99052.76;110135;1265;18609;-33
2023/10/28 01:58:04;;;;;;;;;2.00;2.00;;;;;21.52;53.37;99053.81;110155;1253;20840;-35
2023/10/28 02:00:31;;;;;;;;;1.00;1.00;;;;;21.50;53.23;99055.67;110180;1265;19517;-33
2023/10/28 02:03:00;;;;;;;;;1.00;1.00;;;;;21.50;53.25;99058.48;110149;1253;20110;-33
2023/10/28 02:05:27;;;;;;;;;1.00;1.00;;;;;21.50;53.42;99060.29;110152;1250;20839;-34
2023/10/28 02:07:55;;;;;;;;;1.00;1.00;;;;;21.51;53.52;99062.62;110177;1250;19609;-34
2023/10/28 02:10:23;;;;;;;;;1.00;1.00;;;;;21.52;53.29;99065.27;110142;1265;19156;-33
2023/10/28 02:12:51;;;;;;;;;1.00;1.00;;;;;21.53;53.46;99066.64;110167;1265;19276;-33
2023/10/28 02:15:18;;;;;;;;;1.00;1.00;;;;;21.52;53.23;99066.45;110165;1251;19632;-34
2023/10/28 02:17:46;;;;;;;;;1.00;1.00;;;;;21.51;53.28;99068.61;110144;1250;19966;-33
2023/10/28 02:20:14;;;;;;;;;1.00;1.00;;;;;21.51;53.19;99069.59;110139;1265;19508;-34
2023/10/28 02:22:42;;;;;;;;;1.00;1.00;;;;;21.50;53.11;99070.45;110068;1249;19569;-33
2023/10/28 02:25:10;;;;;;;;;2.00;2.00;;;;;21.49;53.35;99072.37;110214;1265;20008;-33
2023/10/28 02:27:38;;;;;;;;;3.00;1.50;;;;;21.51;53.36;99070.26;110119;1266;19521;-33
2023/10/28 02:30:05;;;;;;;;;1.00;1.00;;;;;21.55;53.35;99074.34;110155;1250;22272;-33
2023/10/28 02:32:33;;;;;;;;;1.00;1.00;;;;;21.55;53.09;99081.45;110159;1265;19742;-34
2023/10/28 02:35:00;;;;;;;;;1.00;1.00;;;;;21.52;53.03;99081.13;110134;1265;19403;-34
2023/10/28 02:37:28;;;;;;;;;2.00;1.00;;;;;21.50;53.22;99081.83;110134;1251;22556;-32
2023/10/28 02:39:55;;;;;;;;;1.00;1.00;;;;;21.48;53.28;99084.38;110138;1253;19911;-33
2023/10/28 02:42:23;;;;;;;;;1.00;1.00;;;;;21.50;53.25;99084.23;110138;1266;22194;-34
2023/10/28 02:44:51;;;;;;;;;2.00;1.00;;;;;21.49;52.98;99089.09;110149;1265;21307;-33
2023/10/28 02:47:18;;;;;;;;;1.00;1.00;;;;;21.52;53.14;99090.81;110146;1265;20152;-33
2023/10/28 02:49:46;;;;;;;;;1.00;1.00;;;;;21.54;52.98;99090.70;110153;1251;20858;-34
2023/10/28 02:52:13;;;;;;;;;1.00;1.00;;;;;21.50;53.22;99096.30;110130;1265;18416;-34
2023/10/28 02:54:40;;;;;;;;;1.00;1.00;;;;;21.50;53.05;99094.84;110144;1250;21286;-33
2023/10/28 02:57:08;;;;;;;;;2.00;1.00;;;;;21.50;53.27;99098.14;110155;1250;19374;-34
2023/10/28 02:59:35;;;;;;;;;2.00;1.00;;;;;21.49;53.49;99096.86;110168;1250;18670;-33
2023/10/28 03:02:03;;;;;;;;;1.00;1.00;;;;;21.47;53.08;99101.04;110116;1265;19587;-33
2023/10/28 03:04:30;;;;;;;;;1.00;1.00;;;;;21.47;53.30;99103.54;110130;1251;20803;-33
2023/10/28 03:06:58;;;;;;;;;1.00;1.00;;;;;21.51;53.31;99107.57;110179;1250;19620;-33
2023/10/28 03:09:25;;;;;;;;;1.00;1.00;;;;;21.49;53.13;99109.05;110171;1258;23915;-34
2023/10/28 03:11:52;;;;;;;;;1.00;1.00;;;;;21.48;53.08;99112.61;110160;1253;19310;-33
2023/10/28 03:14:20;;;;;;;;;1.00;1.00;;;;;21.49;53.08;99108.30;110141;1250;21070;-34
2023/10/28 03:16:47;;;;;;;;;1.00;1.00;;;;;21.48;53.01;99113.58;110151;1253;20066;-33
2023/10/28 03:19:15;;;;;;;;;1.00;1.00;;;;;21.50;53.23;99111.92;110128;1265;19400;-33
2023/10/28 03:21:42;;;;;;;;;1.00;1.00;;;;;21.50;52.91;99118.45;110141;1265;18416;-33
2023/10/28 03:24:09;;;;;;;;;2.00;1.00;;;;;21.49;53.15;99118.42;110126;1251;20051;-33
2023/10/28 03:26:37;;;;;;;;;1.00;1.00;;;;;21.49;52.98;99121.14;110182;1249;20743;-33
2023/10/28 03:29:04;;;;;;;;;1.00;1.00;;;;;21.50;52.88;99123.02;110133;1265;19557;-32
2023/10/28 03:31:32;;;;;;;;;1.00;1.00;;;;;21.48;53.00;99121.81;110150;1253;20548;-32
2023/10/28 03:33:59;;;;;;;;;1.00;1.00;;;;;21.47;52.97;99129.30;110159;1250;22307;-32
2023/10/28 03:36:27;;;;;;;;;1.00;1.00;;;;;21.47;53.32;99124.24;110149;1265;18416;-33
2023/10/28 03:38:55;;;;;;;;;1.00;1.00;;;;;21.48;53.08;99129.44;110182;1252;20103;-33
2023/10/28 03:41:23;;;;;;;;;1.00;1.00;;;;;21.51;53.08;99131.11;110144;1253;20804;-33
2023/10/28 03:43:50;;;;;;;;;1.00;1.00;;;;;21.50;53.21;99130.24;110171;1265;18521;-33
2023/10/28 03:46:18;;;;;;;;;1.00;1.00;;;;;21.48;53.09;99132.84;110125;1265;22259;-39
2023/10/28 03:48:46;;;;;;;;;2.00;1.00;;;;;21.48;53.15;99132.06;110068;1251;21030;-33
2023/10/28 03:51:13;;;;;;;;;1.00;1.00;;;;;21.46;52.97;99134.02;110145;1265;22588;-34
2023/10/28 03:53:40;;;;;;;;;1.00;1.00;;;;;21.47;53.00;99138.25;110144;1265;19636;-34
2023/10/28 03:56:10;;;;;;;;;1.00;1.00;;;;;21.46;53.17;99136.70;110117;1252;20808;-33
2023/10/28 03:58:37;;;;;;;;;1.00;1.00;;;;;21.45;53.23;99135.84;110148;1261;19543;-33
2023/10/28 04:01:05;;;;;;;;;1.00;1.00;;;;;21.48;52.89;99135.55;110155;1259;20164;-33
2023/10/28 04:03:33;;;;;;;;;1.50;1.00;;;;;21.47;53.09;99137.54;110147;1265;19391;-33
2023/10/28 04:06:00;;;;;;;;;1.00;1.00;;;;;21.47;52.93;99142.33;110133;1249;19756;-33
2023/10/28 04:08:28;;;;;;;;;1.00;1.00;;;;;21.49;52.85;99142.17;110133;1265;18661;-33
2023/10/28 04:10:56;;;;;;;;;1.00;1.00;;;;;21.52;52.76;99146.13;110158;1265;19354;-33
2023/10/28 04:13:23;;;;;;;;;1.00;1.00;;;;;21.51;53.04;99147.69;110124;1250;19628;-33
2023/10/28 04:15:51;;;;;;;;;1.00;1.00;;;;;21.52;52.81;99148.08;110035;1251;20074;-33
2023/10/28 04:18:18;;;;;;;;;1.00;1.00;;;;;21.48;52.85;99152.48;110141;1265;19361;-33
2023/10/28 04:20:46;;;;;;;;;2.00;2.00;;;;;21.48;52.98;99157.13;110170;1252;19665;-33
2023/10/28 04:23:13;;;;;;;;;2.00;2.00;;;;;21.46;53.00;99154.30;110127;1250;22561;-33
2023/10/28 04:25:42;;;;;;;;;1.00;1.00;;;;;21.49;52.86;99154.77;110150;1249;20824;-33
2023/10/28 04:28:09;;;;;;;;;1.00;1.00;;;;;21.48;52.71;99159.46;110181;1253;19685;-33
2023/10/28 04:30:37;;;;;;;;;1.00;1.00;;;;;21.50;52.91;99158.77;110146;1250;19973;-33
2023/10/28 04:33:05;;;;;;;;;1.00;1.00;;;;;21.48;52.84;99154.09;110138;1251;20838;-33
2023/10/28 04:35:32;;;;;;;;;1.00;1.00;;;;;21.49;52.90;99162.33;110216;1249;19605;-32
2023/10/28 04:38:00;;;;;;;;;1.00;1.00;;;;;21.55;52.65;99164.23;110131;1265;23413;-33
2023/10/28 04:40:27;;;;;;;;;1.00;1.00;;;;;21.49;52.81;99165.34;110160;1250;20659;-33
2023/10/28 04:42:55;;;;;;;;;2.00;2.00;;;;;21.47;52.93;99165.05;110127;1251;19879;-32
2023/10/28 04:45:23;;;;;;;;;1.00;1.00;;;;;21.48;52.69;99168.19;110132;1265;18636;-33
2023/10/28 04:47:51;;;;;;;;;1.00;1.00;;;;;21.45;52.93;99167.27;110151;1250;20962;-33
2023/10/28 04:50:18;;;;;;;;;1.00;1.00;;;;;21.46;52.92;99167.44;110161;1249;22165;-33
2023/10/28 04:52:46;;;;;;;;;2.00;2.00;;;;;21.47;52.93;99167.83;110150;1251;20032;-33
2023/10/28 04:55:13;;;;;;;;;2.00;2.00;;;;;21.49;52.73;99172.78;110143;1257;19428;-33
2023/10/28 04:57:41;;;;;;;;;2.00;2.00;;;;;21.49;52.71;99175.85;110196;1249;19598;-33
2023/10/28 05:00:09;;;;;;;;;2.00;2.00;;;;;21.49;52.81;99176.48;110137;1251;20147;-33
2023/10/28 05:02:36;;;;;;;;;1.00;1.00;;;;;21.51;52.75;99180.38;110135;1249;20770;-33
2023/10/28 05:05:04;;;;;;;;;1.00;1.00;;;;;21.49;52.99;99186.52;110152;1250;19717;-33
2023/10/28 05:07:31;;;;;;;;;1.50;1.50;;;;;21.45;52.76;99185.80;109843;1266;21364;-33
2023/10/28 05:09:59;;;;;;;;;1.00;1.00;;;;;21.46;52.80;99186.05;110130;1265;22869;-33
2023/10/28 05:12:27;;;;;;;;;2.00;2.00;;;;;21.45;52.98;99184.39;110172;1258;19228;-34
2023/10/28 05:14:54;;;;;;;;;2.00;1.00;;;;;21.46;52.89;99186.70;110177;1253;20213;-33
2023/10/28 05:17:22;;;;;;;;;2.00;2.00;;;;;21.45;52.88;99189.83;110142;1265;19337;-33
2023/10/28 05:19:49;;;;;;;;;1.00;1.00;;;;;21.44;52.80;99190.31;110118;1253;20009;-33
2023/10/28 05:22:18;;;;;;;;;1.50;1.50;;;;;21.45;52.90;99197.08;110152;1251;20137;-33
2023/10/28 05:24:45;;;;;;;;;2.00;2.00;;;;;21.48;52.72;99197.98;110172;1249;20851;-33
2023/10/28 05:27:13;;;;;;;;;2.00;2.00;;;;;21.47;52.90;99202.64;110132;1253;19566;-33
2023/10/28 05:29:40;;;;;;;;;2.00;2.00;;;;;21.48;52.80;99203.13;110152;1265;20023;-33
2023/10/28 05:32:08;;;;;;;;;2.00;1.00;;;;;21.47;52.70;99206.20;110148;1265;20644;-33
2023/10/28 05:34:36;;;;;;;;;2.00;2.00;;;;;21.45;52.57;99204.17;110163;1257;18370;-33
2023/10/28 05:37:03;;;;;;;;;1.00;1.00;;;;;21.46;52.80;99206.77;110109;1250;22375;-33
2023/10/28 05:39:32;;;;;;;;;2.00;2.00;;;;;21.48;52.80;99209.81;110160;1259;20914;-33
2023/10/28 05:42:00;;;;;;;;;2.00;2.00;;;;;21.46;52.83;99211.73;110131;1250;20420;-33
2023/10/28 05:44:27;;;;;;;;;2.00;1.00;;;;;21.46;52.68;99218.36;110144;1250;19973;-33
2023/10/28 05:46:59;;;;;;;;;2.00;2.00;;;;;21.45;52.74;99220.89;110133;1253;20867;-33
2023/10/28 05:49:26;;;;;;;;;1.50;1.50;;;;;21.43;52.72;99222.86;110128;1265;19535;-33
2023/10/28 05:51:54;;;;;;;;;2.00;2.00;;;;;21.45;52.88;99223.36;110164;1253;22314;-32
2023/10/28 05:54:21;;;;;;;;;2.00;2.00;;;;;21.45;52.87;99230.76;110152;1265;19252;-33
2023/10/28 05:56:49;;;;;;;;;2.00;2.00;;;;;21.44;52.88;99228.67;110134;1251;20837;-33
2023/10/28 05:59:16;;;;;;;;;2.00;2.00;;;;;21.42;52.84;99232.58;110173;1250;20059;-33
2023/10/28 06:01:44;;;;;;;;;2.00;2.00;;;;;21.42;52.86;99238.46;110164;1253;20944;-33
2023/10/28 06:04:11;;;;;;;;;3.33;3.33;;;;;21.45;52.74;99243.90;110040;1250;18605;-33
2023/10/28 06:06:39;;;;;;;;;2.00;2.00;;;;;21.42;52.78;99240.33;110065;1251;20940;-33
2023/10/28 06:09:09;;;;;;;;;1.50;1.50;;;;;21.45;52.52;99245.23;110088;1265;22261;-34
2023/10/28 06:11:37;;;;;;;;;2.00;2.00;;;;;21.45;52.86;99249.38;110147;1251;19636;-33
2023/10/28 06:14:05;;;;;;;;;2.00;2.00;;;;;21.45;52.83;99248.08;110157;1249;21157;-33
2023/10/28 06:16:34;;;;;;;;;2.00;2.00;;;;;21.44;52.78;99254.38;110168;1253;20860;-33
2023/10/28 06:19:01;;;;;;;;;2.00;2.00;;;;;21.46;53.08;99255.70;110163;1251;19680;-33
2023/10/28 06:21:29;;;;;;;;;2.67;2.67;;;;;21.52;53.16;99258.24;110156;1265;18528;-34
2023/10/28 06:23:56;;;;;;;;;2.00;2.00;;;;;21.54;53.46;99260.56;110028;1266;19367;-33
2023/10/28 06:26:23;;;;;;;;;2.00;2.00;;;;;21.60;53.48;99261.81;110052;1265;18713;-33
2023/10/28 06:28:51;;;;;;;;;2.00;2.00;;;;;21.59;53.58;99263.48;110029;1250;22699;-33
2023/10/28 06:31:18;;;;;;;;;4.00;4.00;;;;;21.55;53.66;99265.92;110064;1253;20785;-33
2023/10/28 06:33:46;;;;;;;;;4.50;4.50;;;;;21.49;53.93;99269.35;110123;1253;19618;-33
2023/10/28 06:36:13;;;;;;;;;5.00;5.00;;;;;21.49;53.77;99271.42;109993;1250;21258;-33
2023/10/28 06:38:41;;;;;;;;;3.00;3.00;;;;;21.46;53.66;99275.09;110078;1253;20751;-33
2023/10/28 06:41:09;;;;;;;;;3.33;2.67;;;;;21.47;53.70;99278.15;110117;1252;20800;-33
2023/10/28 06:43:36;;;;;;;;;4.00;4.00;;;;;21.48;53.64;99281.83;110152;1250;21881;-33
2023/10/28 06:46:04;;;;;;;;;4.00;4.00;;;;;21.50;53.81;99284.25;110114;1265;19369;-33
2023/10/28 06:48:32;;;;;;;;;4.00;2.00;;;;;21.58;53.45;99286.65;110130;1266;22723;-33
2023/10/28 06:51:02;;;;;;;;;3.00;3.00;;;;;21.50;53.84;99289.92;110142;1265;18749;-32
2023/10/28 06:53:30;;;;;;;;;6.00;4.50;;;;;21.51;53.85;99295.55;110140;1250;20857;-35
2023/10/28 06:55:57;;;;;;;;;4.00;3.00;;;;;21.50;54.11;99295.73;110135;1265;19819;-35
2023/10/28 06:58:25;;;;;;;;;4.00;4.00;;;;;21.50;54.58;99295.56;110143;1251;20107;-33
2023/10/28 07:00:52;;;;;;;;;2.00;2.00;;;;;21.52;54.69;99298.75;110118;1253;22010;-35
2023/10/28 07:03:20;;;;;;;;;2.00;2.00;;;;;21.53;54.42;99302.90;110155;1265;18412;-33
2023/10/28 07:05:47;;;;;;;;;4.00;3.00;;;;;21.56;54.90;99306.92;110133;1251;20020;-33
2023/10/28 07:08:18;;;;;;;;;2.00;2.00;;;;;21.53;55.08;99310.21;110121;1253;20712;-34
2023/10/28 07:10:45;;;;;;;;;2.00;2.00;;;;;21.56;54.82;99318.05;110153;1265;18403;-34
2023/10/28 07:13:13;;;;;;;;;2.00;2.00;;;;;21.61;55.17;99316.48;110155;1259;19928;-34
2023/10/28 07:15:40;;;;;;;;;2.00;2.00;;;;;21.55;55.33;99316.47;110160;1265;19624;-33
2023/10/28 07:18:08;;;;;;;;;4.00;2.00;;;;;21.55;55.76;99315.23;110152;1257;19550;-33
2023/10/28 07:20:36;;;;;;;;;5.50;4.50;;;;;21.56;55.41;99318.27;110121;1253;20055;-34
2023/10/28 07:23:03;;;;;;;;;2.00;2.00;;;;;21.59;55.55;99312.40;110105;1265;20929;-34
2023/10/28 07:25:30;;;;;;;;;4.00;4.00;;;;;21.56;55.58;99311.77;110118;1251;19627;-33
2023/10/28 07:27:58;;;;;;;;;5.00;5.00;;;;;21.57;55.58;99315.68;110134;1265;22714;-33
2023/10/28 07:30:25;;;;;;;;;2.00;2.00;;;;;21.58;55.72;99316.04;110135;1253;21093;-33
2023/10/28 07:32:53;;;;;;;;;3.00;3.00;;;;;21.62;56.16;99316.20;110130;1251;19694;-33
2023/10/28 07:35:20;;;;;;;;;4.00;4.00;;;;;21.71;56.00;99316.96;110110;1265;19931;-33
2023/10/28 07:37:48;;;;;;;;;2.00;2.00;;;;;21.66;56.01;99322.58;110087;1251;20804;-33
2023/10/28 07:40:15;;;;;;;;;2.67;2.67;;;;;21.66;56.22;99322.92;110152;1266;18638;-33
2023/10/28 07:42:44;;;;;;;;;6.00;5.00;;;;;21.70;55.95;99327.13;110027;1250;20235;-33
2023/10/28 07:45:12;;;;;;;;;4.00;4.00;;;;;21.71;55.86;99326.71;110145;1265;19342;-35
2023/10/28 07:47:39;;;;;;;;;2.00;2.00;;;;;21.70;55.98;99330.94;110178;1265;18436;-33
2023/10/28 07:50:07;;;;;;;;;4.00;2.00;;;;;21.71;55.71;99338.54;110113;1266;22817;-33
2023/10/28 07:52:34;;;;;;;;;4.00;4.00;;;;;21.70;55.99;99343.54;110096;1265;19375;-32
2023/10/28 07:55:04;;;;;;;;;2.00;2.00;;;;;21.72;55.86;99347.08;110143;1258;19431;-33
2023/10/28 07:57:31;;;;;;;;;4.00;4.00;;;;;21.73;55.79;99348.91;110120;1253;20064;-33
2023/10/28 07:59:59;;;;;;;;;2.00;2.00;;;;;21.76;56.43;99358.88;110128;1265;20730;-33
2023/10/28 08:02:26;;;;;;;;;4.00;4.00;;;;;21.70;57.21;99362.23;110059;1265;18432;-34
2023/10/28 08:04:53;;;;;;;;;5.00;4.00;;;;;21.74;56.81;99360.72;110139;1265;20236;-33
2023/10/28 08:07:21;;;;;;;;;5.00;4.00;;;;;21.76;56.41;99362.20;110117;1251;21246;-33
2023/10/28 08:09:48;;;;;;;;;4.67;4.00;;;;;21.76;56.33;99363.17;110109;1264;19765;-33
2023/10/28 08:12:16;;;;;;;;;2.00;2.00;;;;;21.77;56.43;99364.45;110108;1253;20040;-33
2023/10/28 08:14:46;;;;;;;;;4.00;4.00;;;;;21.73;56.24;99363.95;110088;1251;20814;-34
2023/10/28 08:17:14;;;;;;;;;2.00;2.00;;;;;21.68;56.63;99364.84;110147;1249;19580;-33
2023/10/28 08:19:41;;;;;;;;;5.00;4.00;;;;;21.67;56.27;99370.70;110093;1265;19983;-33
2023/10/28 08:22:09;;;;;;;;;5.00;4.00;;;;;21.68;55.84;99372.37;110113;1251;20683;-33
2023/10/28 08:24:36;;;;;;;;;5.00;5.00;;;;;21.72;55.43;99375.87;110145;1250;18654;-33
2023/10/28 08:27:04;;;;;;;;;5.00;4.00;;;;;21.69;54.68;99377.13;110145;1265;18822;-33
2023/10/28 08:29:32;;;;;;;;;4.00;4.00;;;;;21.72;54.55;99379.52;110122;1265;19664;-34
2023/10/28 08:32:00;;;;;;;;;5.00;4.00;;;;;21.72;54.53;99375.38;110152;1249;19646;-33
2023/10/28 08:34:27;;;;;;;;;5.00;4.00;;;;;21.71;54.52;99378.82;110110;1265;20009;-33
2023/10/28 08:36:55;;;;;;;;;4.00;4.00;;;;;21.68;54.74;99384.02;110128;1250;23509;-34
2023/10/28 08:39:23;;;;;;;;;8.00;4.00;;;;;21.76;54.76;99383.88;110148;1265;18443;-35
2023/10/28 08:41:51;;;;;;;;;4.50;4.00;;;;;21.78;54.59;99384.16;110122;1250;20157;-34
2023/10/28 08:44:20;;;;;;;;;4.00;4.00;;;;;21.79;54.63;99392.15;110137;1251;21901;-36
2023/10/28 08:46:48;;;;;;;;;2.00;2.00;;;;;21.76;54.88;99398.77;110128;1265;18240;-34
2023/10/28 08:49:15;;;;;;;;;4.00;4.00;;;;;21.71;54.54;99402.21;110121;1265;19880;-34
2023/10/28 08:51:43;;;;;;;;;5.00;4.00;;;;;21.68;54.53;99405.05;110090;1265;19414;-34
2023/10/28 08:54:11;;;;;;;;;2.00;2.00;;;;;21.70;54.75;99409.02;110139;1265;18545;-36
2023/10/28 08:56:38;;;;;;;;;2.00;2.00;;;;;21.75;54.30;99411.23;110092;1266;22741;-33
2023/10/28 08:59:07;;;;;;;;;2.00;2.00;;;;;21.79;54.50;99411.73;110145;1249;20762;-35
2023/10/28 09:01:35;;;;;;;;;2.00;2.00;;;;;21.73;54.57;99414.80;110083;1251;23542;-34
2023/10/28 09:04:04;;;;;;;;;3.00;2.00;;;;;21.72;54.46;99417.23;110139;1250;20012;-32
2023/10/28 09:06:32;;;;;;;;;2.00;1.00;;;;;21.78;54.35;99422.70;110108;1266;20735;-33
2023/10/28 09:08:59;;;;;;;;;4.00;4.00;;;;;21.78;54.36;99421.35;110054;1265;21963;-33
2023/10/28 09:11:27;;;;;;;;;4.00;2.00;;;;;21.75;54.46;99428.66;110096;1251;20088;-33
2023/10/28 09:13:56;;;;;;;;;2.00;2.00;;;;;21.73;54.75;99429.64;110138;1253;20797;-33
2023/10/28 09:16:24;;;;;;;;;2.00;2.00;;;;;21.75;54.38;99437.00;110142;1251;19694;-33
2023/10/28 09:18:51;;;;;;;;;4.00;4.00;;;;;21.78;54.34;99439.05;110154;1249;20103;-34
2023/10/28 09:21:19;;;;;;;;;5.00;4.00;;;;;21.72;53.99;99440.99;110109;1265;22432;-34
2023/10/28 09:23:47;;;;;;;;;12.50;8.50;;;;;21.66;53.81;99441.39;110173;1249;19771;-33
2023/10/28 09:26:14;;;;;;;;;9.00;8.00;;;;;21.59;50.25;99440.27;110124;1265;18715;-34
2023/10/28 09:28:42;;;;;;;;;7.00;7.00;;;;;21.53;49.42;99443.83;110122;1259;19359;-34
2023/10/28 09:31:09;;;;;;;;;5.00;5.00;;;;;21.44;50.40;99450.13;110114;1251;20770;-33
2023/10/28 09:33:37;;;;;;;;;5.00;4.00;;;;;21.39;50.37;99454.05;110151;1253;20230;-33
2023/10/28 09:36:05;;;;;;;;;7.00;7.00;;;;;21.35;50.08;99455.23;110132;1251;20684;-33
2023/10/28 09:38:32;;;;;;;;;9.00;7.50;;;;;21.31;49.47;99454.81;110140;1265;18347;-33
2023/10/28 09:41:01;;;;;;;;;8.00;8.00;;;;;21.27;48.86;99453.41;110107;1258;20569;-33
2023/10/28 09:43:28;;;;;;;;;8.00;7.00;;;;;21.24;48.22;99448.75;110135;1253;19795;-34
2023/10/28 09:45:56;;;;;;;;;7.00;7.00;;;;;21.22;47.78;99454.45;110109;1250;20803;-33
2023/10/28 09:48:23;;;;;;;;;7.00;7.00;;;;;21.19;47.53;99454.02;110105;1250;20314;-33
2023/10/28 09:50:52;;;;;;;;;5.00;5.00;;;;;21.18;46.97;99455.06;110147;1253;20794;-34
2023/10/28 09:53:20;;;;;;;;;8.00;8.00;;;;;21.16;46.57;99456.48;110105;1250;19431;-35
2023/10/28 09:55:47;;;;;;;;;7.00;6.33;;;;;21.13;46.28;99454.40;110044;1251;20109;-35
2023/10/28 09:58:14;;;;;;;;;8.00;8.00;;;;;21.14;45.68;99459.67;110046;1265;19418;-35
2023/10/28 10:00:42;;;;;;;;;6.00;6.00;;;;;21.11;45.96;99462.56;110111;1250;18450;-35
2023/10/28 10:03:10;;;;;;;;;;;;;;;21.08;45.58;99464.85;110164;1265;20067;-35
2023/10/28 10:05:37;;;;;;;;;8.00;8.00;;;;;21.06;44.89;99464.89;110140;1266;19333;-34
2023/10/28 10:08:05;;;;;;;;;8.00;8.00;;;;;21.04;44.62;99466.79;110111;1266;23982;-35
2023/10/28 10:10:34;;;;;;;;;11.00;10.00;;;;;21.03;44.59;99467.89;110098;1259;18737;-35
2023/10/28 10:13:01;;;;;;;;;10.00;10.00;;;;;21.01;44.34;99469.02;110105;1257;23460;-34
2023/10/28 10:15:29;;;;;;;;;13.50;13.50;;;;;21.01;44.33;99469.98;110143;1251;20039;-35
2023/10/28 10:17:57;;;;;;;;;10.00;10.00;;;;;21.01;43.87;99471.20;110101;1249;22169;-35
2023/10/28 10:20:25;;;;;;;;;9.00;7.50;;;;;20.99;43.89;99475.00;110082;1253;20785;-34
2023/10/28 10:22:53;;;;;;;;;10.00;8.00;;;;;20.98;43.70;99472.45;110064;1265;20023;-35
2023/10/28 10:25:20;;;;;;;;;11.00;9.00;;;;;20.98;43.48;99478.72;110020;1253;20197;-34
2023/10/28 10:27:48;;;;;;;;;12.00;10.00;;;;;21.00;43.42;99477.43;110084;1251;20858;-35
2023/10/28 10:30:15;;;;;;;;;8.00;8.00;;;;;21.06;43.28;99477.73;110116;1265;22407;-34
2023/10/28 10:32:44;;;;;;;;;8.00;8.00;;;;;21.10;43.41;99474.90;110105;1251;20085;-34
2023/10/28 10:35:11;;;;;;;;;10.00;7.33;;;;;21.21;43.72;99477.17;110144;1250;20826;-34
2023/10/28 10:37:39;;;;;;;;;7.00;6.00;;;;;21.28;44.24;99480.70;110129;1251;19640;-34
2023/10/28 10:40:06;;;;;;;;;7.00;7.00;;;;;21.32;45.10;99485.03;110104;1265;18633;-35
2023/10/28 10:42:34;;;;;;;;;6.00;5.00;;;;;21.38;45.66;99483.79;110133;1265;21106;-35
2023/10/28 10:45:03;;;;;;;;;5.00;5.00;;;;;21.45;46.29;99483.40;110132;1251;19669;-35
2023/10/28 10:47:31;;;;;;;;;6.00;6.00;;;;;21.48;46.40;99485.73;110103;1251;20095;-35
2023/10/28 10:49:58;;;;;;;;;9.00;8.00;;;;;21.51;46.53;99487.73;110084;1265;19414;-34
2023/10/28 10:52:26;;;;;;;;;8.00;8.00;;;;;21.53;46.47;99486.44;110120;1253;20167;-35
2023/10/28 10:54:53;;;;;;;;;8.67;7.67;;;;;21.59;46.73;99489.86;110109;1265;22238;-35
2023/10/28 10:57:21;;;;;;;;;8.00;7.67;;;;;21.60;46.95;99491.63;110085;1252;20968;-34
2023/10/28 10:59:49;;;;;;;;;8.00;7.50;;;;;21.58;47.22;99493.86;110111;1250;19619;-35
2023/10/28 11:02:17;;;;;;;;;9.00;7.50;;;;;21.75;47.11;99494.41;110136;1265;19971;-36
2023/10/28 11:04:44;;;;;;;;;7.50;7.50;;;;;21.78;47.24;99493.86;110094;1265;20467;-34
2023/10/28 11:07:12;;;;;;;;;11.00;8.00;;;;;21.71;47.40;99491.88;110130;1250;19653;-33
2023/10/28 11:09:42;;;;;;;;;8.00;8.00;;;;;21.66;48.05;99492.80;110111;1250;22154;-35
2023/10/28 11:12:09;;;;;;;;;7.33;4.67;;;;;21.60;48.12;99496.86;110110;1251;20846;-34
2023/10/28 11:14:36;;;;;;;;;6.00;6.00;;;;;21.56;48.64;99494.00;110116;1251;20130;-34
2023/10/28 11:17:04;;;;;;;;;6.50;6.00;;;;;21.53;49.04;99499.90;110146;1250;19907;-34
2023/10/28 11:19:31;;;;;;;;;7.00;5.00;;;;;21.54;48.87;99494.42;110133;1265;19331;-34
2023/10/28 11:21:59;;;;;;;;;8.00;8.00;;;;;21.54;48.88;99496.98;110132;1250;19698;-33
2023/10/28 11:24:27;;;;;;;;;7.00;7.00;;;;;21.56;49.16;99500.54;110176;1250;20267;-33
2023/10/28 11:26:54;;;;;;;;;5.00;5.00;;;;;21.55;49.32;99501.43;110201;1250;20843;-34